sensor_id;sensor_type;location;lat;lon;timestamp;temperature;humidity
19261;DHT22;9764;48.114;11.670;2022-09-03T00:02:33;23.20;92.50
19261;DHT22;9764;48.114;11.670;2022-09-03T00:05:07;23.20;92.60
19261;DHT22;9764;48.114;11.670;2022-09-03T00:07:41;23.20;92.60
19261;DHT22;9764;48.114;11.670;2022-09-03T00:10:20;23.20;92.60
19261;DHT22;9764;48.114;11.670;2022-09-03T00:12:51;23.20;92.60
19261;DHT22;9764;48.114;11.670;2022-09-03T00:15:24;23.20;92.60
19261;DHT22;9764;48.114;11.670;2022-09-03T00:17:54;23.20;92.60
19261;DHT22;9764;48.114;11.670;2022-09-03T00:20:27;23.20;92.60
19261;DHT22;9764;48.114;11.670;2022-09-03T00:22:59;23.20;92.60
19261;DHT22;9764;48.114;11.670;2022-09-03T00:25:37;23.20;92.60
19261;DHT22;9764;48.114;11.670;2022-09-03T00:28:12;23.20;92.60
19261;DHT22;9764;48.114;11.670;2022-09-03T00:30:42;23.20;92.60
19261;DHT22;9764;48.114;11.670;2022-09-03T00:33:17;23.20;92.70
19261;DHT22;9764;48.114;11.670;2022-09-03T00:35:49;23.20;92.70
19261;DHT22;9764;48.114;11.670;2022-09-03T00:38:19;23.20;92.70
19261;DHT22;9764;48.114;11.670;2022-09-03T00:41:03;23.20;92.80
19261;DHT22;9764;48.114;11.670;2022-09-03T00:43:53;23.20;92.90
19261;DHT22;9764;48.114;11.670;2022-09-03T00:46:28;23.20;92.90
19261;DHT22;9764;48.114;11.670;2022-09-03T00:49:21;23.20;93.00
19261;DHT22;9764;48.114;11.670;2022-09-03T00:52:02;23.20;93.00
19261;DHT22;9764;48.114;11.670;2022-09-03T00:54:45;23.20;93.00
19261;DHT22;9764;48.114;11.670;2022-09-03T00:57:26;23.20;93.00
19261;DHT22;9764;48.114;11.670;2022-09-03T01:00:05;23.20;93.10
19261;DHT22;9764;48.114;11.670;2022-09-03T01:02:46;23.20;93.10
19261;DHT22;9764;48.114;11.670;2022-09-03T01:05:39;23.20;93.20
19261;DHT22;9764;48.114;11.670;2022-09-03T01:08:25;23.20;93.20
19261;DHT22;9764;48.114;11.670;2022-09-03T01:11:07;23.20;93.20
19261;DHT22;9764;48.114;11.670;2022-09-03T01:13:45;23.20;93.30
19261;DHT22;9764;48.114;11.670;2022-09-03T01:16:23;23.20;93.40
19261;DHT22;9764;48.114;11.670;2022-09-03T01:18:59;23.20;93.40
19261;DHT22;9764;48.114;11.670;2022-09-03T01:21:47;23.20;93.40
19261;DHT22;9764;48.114;11.670;2022-09-03T01:24:44;23.20;93.50
19261;DHT22;9764;48.114;11.670;2022-09-03T01:27:25;23.10;93.50
19261;DHT22;9764;48.114;11.670;2022-09-03T01:30:04;23.20;93.60
19261;DHT22;9764;48.114;11.670;2022-09-03T01:32:39;23.10;93.60
19261;DHT22;9764;48.114;11.670;2022-09-03T01:35:15;23.20;93.70
19261;DHT22;9764;48.114;11.670;2022-09-03T01:37:58;23.20;93.80
19261;DHT22;9764;48.114;11.670;2022-09-03T01:40:35;23.20;93.80
19261;DHT22;9764;48.114;11.670;2022-09-03T01:43:21;23.20;93.90
19261;DHT22;9764;48.114;11.670;2022-09-03T01:46:04;23.10;93.90
19261;DHT22;9764;48.114;11.670;2022-09-03T01:48:43;23.10;94.00
19261;DHT22;9764;48.114;11.670;2022-09-03T01:51:18;23.10;94.00
19261;DHT22;9764;48.114;11.670;2022-09-03T01:54:08;23.10;94.00
19261;DHT22;9764;48.114;11.670;2022-09-03T01:57:18;23.10;94.10
19261;DHT22;9764;48.114;11.670;2022-09-03T02:00:05;23.10;94.10
19261;DHT22;9764;48.114;11.670;2022-09-03T02:02:42;23.10;94.20
19261;DHT22;9764;48.114;11.670;2022-09-03T02:05:16;23.10;94.20
19261;DHT22;9764;48.114;11.670;2022-09-03T02:07:47;23.10;94.30
19261;DHT22;9764;48.114;11.670;2022-09-03T02:10:21;23.10;94.40
19261;DHT22;9764;48.114;11.670;2022-09-03T02:12:57;23.10;94.40
19261;DHT22;9764;48.114;11.670;2022-09-03T02:15:27;23.10;94.50
19261;DHT22;9764;48.114;11.670;2022-09-03T02:18:02;23.10;94.50
19261;DHT22;9764;48.114;11.670;2022-09-03T02:20:31;23.10;94.50
19261;DHT22;9764;48.114;11.670;2022-09-03T02:23:03;23.10;94.60
19261;DHT22;9764;48.114;11.670;2022-09-03T02:25:36;23.10;94.60
19261;DHT22;9764;48.114;11.670;2022-09-03T02:28:06;23.10;94.70
19261;DHT22;9764;48.114;11.670;2022-09-03T02:30:44;23.10;94.80
19261;DHT22;9764;48.114;11.670;2022-09-03T02:33:14;23.10;94.80
19261;DHT22;9764;48.114;11.670;2022-09-03T02:35:43;23.00;94.80
19261;DHT22;9764;48.114;11.670;2022-09-03T02:38:13;23.10;94.90
19261;DHT22;9764;48.114;11.670;2022-09-03T02:40:43;23.10;94.90
19261;DHT22;9764;48.114;11.670;2022-09-03T02:43:14;23.00;94.90
19261;DHT22;9764;48.114;11.670;2022-09-03T02:45:50;23.00;95.00
19261;DHT22;9764;48.114;11.670;2022-09-03T02:48:23;23.00;95.00
19261;DHT22;9764;48.114;11.670;2022-09-03T02:50:51;23.00;95.00
19261;DHT22;9764;48.114;11.670;2022-09-03T02:53:20;23.00;95.00
19261;DHT22;9764;48.114;11.670;2022-09-03T02:55:48;23.00;95.10
19261;DHT22;9764;48.114;11.670;2022-09-03T02:58:17;23.00;95.00
19261;DHT22;9764;48.114;11.670;2022-09-03T03:00:45;23.00;95.10
19261;DHT22;9764;48.114;11.670;2022-09-03T03:03:15;23.00;95.20
19261;DHT22;9764;48.114;11.670;2022-09-03T03:05:48;23.00;95.10
19261;DHT22;9764;48.114;11.670;2022-09-03T03:08:18;23.00;95.20
19261;DHT22;9764;48.114;11.670;2022-09-03T03:10:51;23.00;95.20
19261;DHT22;9764;48.114;11.670;2022-09-03T03:13:20;23.00;95.20
19261;DHT22;9764;48.114;11.670;2022-09-03T03:15:48;23.00;95.20
19261;DHT22;9764;48.114;11.670;2022-09-03T03:18:17;23.00;95.20
19261;DHT22;9764;48.114;11.670;2022-09-03T03:20:47;23.00;95.20
19261;DHT22;9764;48.114;11.670;2022-09-03T03:23:16;23.00;95.30
19261;DHT22;9764;48.114;11.670;2022-09-03T03:25:44;23.00;95.30
19261;DHT22;9764;48.114;11.670;2022-09-03T03:28:13;23.00;95.30
19261;DHT22;9764;48.114;11.670;2022-09-03T03:30:42;23.00;95.40
19261;DHT22;9764;48.114;11.670;2022-09-03T03:33:13;23.00;95.30
19261;DHT22;9764;48.114;11.670;2022-09-03T03:35:41;23.00;95.30
19261;DHT22;9764;48.114;11.670;2022-09-03T03:38:14;23.00;95.40
19261;DHT22;9764;48.114;11.670;2022-09-03T03:40:42;23.00;95.40
19261;DHT22;9764;48.114;11.670;2022-09-03T03:43:11;23.00;95.40
19261;DHT22;9764;48.114;11.670;2022-09-03T03:45:39;23.00;95.50
19261;DHT22;9764;48.114;11.670;2022-09-03T03:48:07;23.00;95.50
19261;DHT22;9764;48.114;11.670;2022-09-03T03:50:36;23.00;95.50
19261;DHT22;9764;48.114;11.670;2022-09-03T03:53:05;23.00;95.50
19261;DHT22;9764;48.114;11.670;2022-09-03T03:55:34;22.90;95.70
19261;DHT22;9764;48.114;11.670;2022-09-03T03:58:03;22.90;96.00
19261;DHT22;9764;48.114;11.670;2022-09-03T04:00:31;22.80;96.10
19261;DHT22;9764;48.114;11.670;2022-09-03T04:03:00;22.80;96.30
19261;DHT22;9764;48.114;11.670;2022-09-03T04:05:28;22.70;96.30
19261;DHT22;9764;48.114;11.670;2022-09-03T04:08:00;22.70;96.40
19261;DHT22;9764;48.114;11.670;2022-09-03T04:10:30;22.70;96.50
19261;DHT22;9764;48.114;11.670;2022-09-03T04:12:59;22.70;96.50
19261;DHT22;9764;48.114;11.670;2022-09-03T04:15:28;22.70;96.60
19261;DHT22;9764;48.114;11.670;2022-09-03T04:17:56;22.70;96.60
19261;DHT22;9764;48.114;11.670;2022-09-03T04:20:25;22.60;96.70
19261;DHT22;9764;48.114;11.670;2022-09-03T04:22:53;22.70;96.60
19261;DHT22;9764;48.114;11.670;2022-09-03T04:25:22;22.70;96.50
19261;DHT22;9764;48.114;11.670;2022-09-03T04:27:50;22.70;96.40
19261;DHT22;9764;48.114;11.670;2022-09-03T04:30:21;22.80;96.50
19261;DHT22;9764;48.114;11.670;2022-09-03T04:32:49;22.80;96.40
19261;DHT22;9764;48.114;11.670;2022-09-03T04:35:24;22.80;96.40
19261;DHT22;9764;48.114;11.670;2022-09-03T04:37:53;22.80;96.40
19261;DHT22;9764;48.114;11.670;2022-09-03T04:40:22;22.80;96.40
19261;DHT22;9764;48.114;11.670;2022-09-03T04:42:55;22.80;96.40
19261;DHT22;9764;48.114;11.670;2022-09-03T04:45:25;22.90;96.40
19261;DHT22;9764;48.114;11.670;2022-09-03T04:47:56;22.80;96.30
19261;DHT22;9764;48.114;11.670;2022-09-03T04:50:29;22.80;96.40
19261;DHT22;9764;48.114;11.670;2022-09-03T04:53:03;22.90;96.40
19261;DHT22;9764;48.114;11.670;2022-09-03T04:55:35;22.80;96.40
19261;DHT22;9764;48.114;11.670;2022-09-03T04:58:04;22.90;96.50
19261;DHT22;9764;48.114;11.670;2022-09-03T05:00:36;22.90;96.50
19261;DHT22;9764;48.114;11.670;2022-09-03T05:03:05;22.90;96.50
19261;DHT22;9764;48.114;11.670;2022-09-03T05:05:34;23.00;96.40
19261;DHT22;9764;48.114;11.670;2022-09-03T05:08:03;22.90;96.30
19261;DHT22;9764;48.114;11.670;2022-09-03T05:10:34;23.00;96.30
19261;DHT22;9764;48.114;11.670;2022-09-03T05:13:04;23.00;96.30
19261;DHT22;9764;48.114;11.670;2022-09-03T05:15:32;23.00;96.30
19261;DHT22;9764;48.114;11.670;2022-09-03T05:18:02;22.90;96.30
19261;DHT22;9764;48.114;11.670;2022-09-03T05:20:31;23.00;96.30
19261;DHT22;9764;48.114;11.670;2022-09-03T05:23:01;23.00;96.30
19261;DHT22;9764;48.114;11.670;2022-09-03T05:25:30;23.00;96.40
19261;DHT22;9764;48.114;11.670;2022-09-03T05:27:59;23.00;96.40
19261;DHT22;9764;48.114;11.670;2022-09-03T05:30:28;22.90;96.40
19261;DHT22;9764;48.114;11.670;2022-09-03T05:32:56;22.90;96.40
19261;DHT22;9764;48.114;11.670;2022-09-03T05:35:26;22.90;96.50
19261;DHT22;9764;48.114;11.670;2022-09-03T05:37:56;22.90;96.50
19261;DHT22;9764;48.114;11.670;2022-09-03T05:40:27;22.90;96.50
19261;DHT22;9764;48.114;11.670;2022-09-03T05:42:57;23.00;96.50
19261;DHT22;9764;48.114;11.670;2022-09-03T05:45:26;23.00;96.50
19261;DHT22;9764;48.114;11.670;2022-09-03T05:47:59;23.00;96.40
19261;DHT22;9764;48.114;11.670;2022-09-03T05:50:29;23.00;96.50
19261;DHT22;9764;48.114;11.670;2022-09-03T05:52:58;23.00;96.40
19261;DHT22;9764;48.114;11.670;2022-09-03T05:55:29;23.00;96.40
19261;DHT22;9764;48.114;11.670;2022-09-03T05:57:58;23.00;96.40
19261;DHT22;9764;48.114;11.670;2022-09-03T06:00:27;23.00;96.50
19261;DHT22;9764;48.114;11.670;2022-09-03T06:02:55;23.00;96.50
19261;DHT22;9764;48.114;11.670;2022-09-03T06:05:24;23.00;96.50
19261;DHT22;9764;48.114;11.670;2022-09-03T06:07:54;23.00;96.50
19261;DHT22;9764;48.114;11.670;2022-09-03T06:10:22;23.00;96.50
19261;DHT22;9764;48.114;11.670;2022-09-03T06:12:56;23.10;96.50
19261;DHT22;9764;48.114;11.670;2022-09-03T06:15:27;23.00;96.50
19261;DHT22;9764;48.114;11.670;2022-09-03T06:17:55;23.10;96.50
19261;DHT22;9764;48.114;11.670;2022-09-03T06:20:24;23.10;96.50
19261;DHT22;9764;48.114;11.670;2022-09-03T06:22:55;23.10;96.50
19261;DHT22;9764;48.114;11.670;2022-09-03T06:25:23;23.10;96.50
19261;DHT22;9764;48.114;11.670;2022-09-03T06:27:52;23.10;96.50
19261;DHT22;9764;48.114;11.670;2022-09-03T06:30:20;23.10;96.60
19261;DHT22;9764;48.114;11.670;2022-09-03T06:32:50;23.10;96.60
19261;DHT22;9764;48.114;11.670;2022-09-03T06:35:18;23.10;96.60
19261;DHT22;9764;48.114;11.670;2022-09-03T06:37:47;23.10;96.70
19261;DHT22;9764;48.114;11.670;2022-09-03T06:40:16;23.10;96.70
19261;DHT22;9764;48.114;11.670;2022-09-03T06:42:55;23.10;96.70
19261;DHT22;9764;48.114;11.670;2022-09-03T06:45:26;23.10;96.70
19261;DHT22;9764;48.114;11.670;2022-09-03T06:47:55;23.10;96.70
19261;DHT22;9764;48.114;11.670;2022-09-03T06:50:23;23.10;96.70
19261;DHT22;9764;48.114;11.670;2022-09-03T06:52:52;23.10;96.70
19261;DHT22;9764;48.114;11.670;2022-09-03T06:55:22;23.10;96.80
19261;DHT22;9764;48.114;11.670;2022-09-03T06:57:54;23.10;96.80
19261;DHT22;9764;48.114;11.670;2022-09-03T07:00:23;23.10;96.70
19261;DHT22;9764;48.114;11.670;2022-09-03T07:02:55;23.20;96.80
19261;DHT22;9764;48.114;11.670;2022-09-03T07:05:25;23.10;96.70
19261;DHT22;9764;48.114;11.670;2022-09-03T07:07:54;23.10;96.70
19261;DHT22;9764;48.114;11.670;2022-09-03T07:10:24;23.20;96.80
19261;DHT22;9764;48.114;11.670;2022-09-03T07:12:54;23.10;96.80
19261;DHT22;9764;48.114;11.670;2022-09-03T07:15:22;23.20;96.80
19261;DHT22;9764;48.114;11.670;2022-09-03T07:17:52;23.10;96.80
19261;DHT22;9764;48.114;11.670;2022-09-03T07:20:20;23.10;96.80
19261;DHT22;9764;48.114;11.670;2022-09-03T07:22:53;23.10;96.80
19261;DHT22;9764;48.114;11.670;2022-09-03T07:25:24;23.10;96.80
19261;DHT22;9764;48.114;11.670;2022-09-03T07:27:53;23.10;96.90
19261;DHT22;9764;48.114;11.670;2022-09-03T07:30:21;23.10;96.90
19261;DHT22;9764;48.114;11.670;2022-09-03T07:32:52;23.10;96.90
19261;DHT22;9764;48.114;11.670;2022-09-03T07:35:22;23.10;97.00
19261;DHT22;9764;48.114;11.670;2022-09-03T07:37:51;23.10;97.10
19261;DHT22;9764;48.114;11.670;2022-09-03T07:40:21;23.10;97.10
19261;DHT22;9764;48.114;11.670;2022-09-03T07:42:55;23.10;97.20
19261;DHT22;9764;48.114;11.670;2022-09-03T07:45:25;23.10;97.20
19261;DHT22;9764;48.114;11.670;2022-09-03T07:47:55;23.10;97.20
19261;DHT22;9764;48.114;11.670;2022-09-03T07:50:25;23.20;97.30
19261;DHT22;9764;48.114;11.670;2022-09-03T07:52:55;23.10;97.20
19261;DHT22;9764;48.114;11.670;2022-09-03T07:55:25;23.10;97.30
19261;DHT22;9764;48.114;11.670;2022-09-03T07:57:56;23.10;97.30
19261;DHT22;9764;48.114;11.670;2022-09-03T08:00:25;23.10;97.30
19261;DHT22;9764;48.114;11.670;2022-09-03T08:02:54;23.10;97.30
19261;DHT22;9764;48.114;11.670;2022-09-03T08:05:25;23.20;97.40
19261;DHT22;9764;48.114;11.670;2022-09-03T08:07:54;23.20;97.40
19261;DHT22;9764;48.114;11.670;2022-09-03T08:10:23;23.20;97.40
19261;DHT22;9764;48.114;11.670;2022-09-03T08:12:52;23.10;97.40
19261;DHT22;9764;48.114;11.670;2022-09-03T08:15:22;23.20;97.40
19261;DHT22;9764;48.114;11.670;2022-09-03T08:17:51;23.20;97.40
19261;DHT22;9764;48.114;11.670;2022-09-03T08:20:29;23.20;97.40
19261;DHT22;9764;48.114;11.670;2022-09-03T08:23:01;23.20;97.50
19261;DHT22;9764;48.114;11.670;2022-09-03T08:25:30;23.20;97.50
19261;DHT22;9764;48.114;11.670;2022-09-03T08:27:59;23.20;97.50
19261;DHT22;9764;48.114;11.670;2022-09-03T08:30:29;23.20;97.50
19261;DHT22;9764;48.114;11.670;2022-09-03T08:33:00;23.20;97.50
19261;DHT22;9764;48.114;11.670;2022-09-03T08:35:30;23.20;97.50
19261;DHT22;9764;48.114;11.670;2022-09-03T08:38:00;23.20;97.40
19261;DHT22;9764;48.114;11.670;2022-09-03T08:40:36;23.20;97.40
19261;DHT22;9764;48.114;11.670;2022-09-03T08:43:09;23.20;97.30
19261;DHT22;9764;48.114;11.670;2022-09-03T08:45:47;23.20;97.40
19261;DHT22;9764;48.114;11.670;2022-09-03T08:48:19;23.20;97.40
19261;DHT22;9764;48.114;11.670;2022-09-03T08:50:55;23.20;97.50
19261;DHT22;9764;48.114;11.670;2022-09-03T08:53:32;23.20;97.60
19261;DHT22;9764;48.114;11.670;2022-09-03T08:56:08;23.20;97.60
19261;DHT22;9764;48.114;11.670;2022-09-03T08:58:37;23.30;97.60
19261;DHT22;9764;48.114;11.670;2022-09-03T09:01:15;23.20;97.60
19261;DHT22;9764;48.114;11.670;2022-09-03T09:03:59;23.20;97.60
19261;DHT22;9764;48.114;11.670;2022-09-03T09:06:34;23.30;97.70
19261;DHT22;9764;48.114;11.670;2022-09-03T09:09:14;23.20;97.70
19261;DHT22;9764;48.114;11.670;2022-09-03T09:11:53;23.30;97.70
19261;DHT22;9764;48.114;11.670;2022-09-03T09:14:30;23.20;97.60
19261;DHT22;9764;48.114;11.670;2022-09-03T09:17:13;23.30;97.70
19261;DHT22;9764;48.114;11.670;2022-09-03T09:19:49;23.20;97.60
19261;DHT22;9764;48.114;11.670;2022-09-03T09:22:24;23.30;97.50
19261;DHT22;9764;48.114;11.670;2022-09-03T09:25:00;23.30;97.40
19261;DHT22;9764;48.114;11.670;2022-09-03T09:27:31;23.30;97.50
19261;DHT22;9764;48.114;11.670;2022-09-03T09:30:04;23.30;97.50
19261;DHT22;9764;48.114;11.670;2022-09-03T09:32:34;23.30;97.50
19261;DHT22;9764;48.114;11.670;2022-09-03T09:35:07;23.30;97.60
19261;DHT22;9764;48.114;11.670;2022-09-03T09:37:46;23.30;97.70
19261;DHT22;9764;48.114;11.670;2022-09-03T09:40:23;23.30;97.80
19261;DHT22;9764;48.114;11.670;2022-09-03T09:43:05;23.30;97.60
19261;DHT22;9764;48.114;11.670;2022-09-03T09:45:34;23.30;97.70
19261;DHT22;9764;48.114;11.670;2022-09-03T09:48:08;23.30;97.80
19261;DHT22;9764;48.114;11.670;2022-09-03T09:50:37;23.30;97.80
19261;DHT22;9764;48.114;11.670;2022-09-03T09:53:07;23.30;97.70
19261;DHT22;9764;48.114;11.670;2022-09-03T09:55:53;23.30;97.80
19261;DHT22;9764;48.114;11.670;2022-09-03T09:58:26;23.30;97.80
19261;DHT22;9764;48.114;11.670;2022-09-03T10:00:59;23.30;97.70
19261;DHT22;9764;48.114;11.670;2022-09-03T10:03:33;23.30;97.80
19261;DHT22;9764;48.114;11.670;2022-09-03T10:06:04;23.30;97.80
19261;DHT22;9764;48.114;11.670;2022-09-03T10:08:47;23.30;97.90
19261;DHT22;9764;48.114;11.670;2022-09-03T10:11:17;23.30;98.20
19261;DHT22;9764;48.114;11.670;2022-09-03T10:13:47;23.30;98.20
19261;DHT22;9764;48.114;11.670;2022-09-03T10:16:21;23.30;97.80
19261;DHT22;9764;48.114;11.670;2022-09-03T10:19:03;23.40;97.90
19261;DHT22;9764;48.114;11.670;2022-09-03T10:21:40;23.30;98.00
19261;DHT22;9764;48.114;11.670;2022-09-03T10:24:32;23.40;98.10
19261;DHT22;9764;48.114;11.670;2022-09-03T10:27:09;23.40;97.90
19261;DHT22;9764;48.114;11.670;2022-09-03T10:29:40;23.40;97.80
19261;DHT22;9764;48.114;11.670;2022-09-03T10:32:25;23.40;97.80
19261;DHT22;9764;48.114;11.670;2022-09-03T10:35:13;23.40;97.80
19261;DHT22;9764;48.114;11.670;2022-09-03T10:37:49;23.40;97.70
19261;DHT22;9764;48.114;11.670;2022-09-03T10:40:27;23.40;97.70
19261;DHT22;9764;48.114;11.670;2022-09-03T10:43:23;23.40;97.80
19261;DHT22;9764;48.114;11.670;2022-09-03T10:46:02;23.40;97.80
19261;DHT22;9764;48.114;11.670;2022-09-03T10:48:49;23.40;97.80
19261;DHT22;9764;48.114;11.670;2022-09-03T10:51:25;23.40;98.00
19261;DHT22;9764;48.114;11.670;2022-09-03T10:54:07;23.40;97.80
19261;DHT22;9764;48.114;11.670;2022-09-03T10:56:41;23.40;97.90
19261;DHT22;9764;48.114;11.670;2022-09-03T10:59:28;23.40;97.90
19261;DHT22;9764;48.114;11.670;2022-09-03T11:02:14;23.40;97.90
19261;DHT22;9764;48.114;11.670;2022-09-03T11:04:51;23.40;97.90
19261;DHT22;9764;48.114;11.670;2022-09-03T11:07:27;23.40;97.90
19261;DHT22;9764;48.114;11.670;2022-09-03T11:10:06;23.40;97.80
19261;DHT22;9764;48.114;11.670;2022-09-03T11:12:41;23.50;97.90
19261;DHT22;9764;48.114;11.670;2022-09-03T11:15:14;23.40;98.00
19261;DHT22;9764;48.114;11.670;2022-09-03T11:17:47;23.40;98.00
19261;DHT22;9764;48.114;11.670;2022-09-03T11:20:20;23.40;98.10
19261;DHT22;9764;48.114;11.670;2022-09-03T11:22:53;23.40;98.20
19261;DHT22;9764;48.114;11.670;2022-09-03T11:25:25;23.40;98.30
19261;DHT22;9764;48.114;11.670;2022-09-03T11:28:06;23.40;98.40
19261;DHT22;9764;48.114;11.670;2022-09-03T11:30:48;23.40;98.30
19261;DHT22;9764;48.114;11.670;2022-09-03T11:33:22;23.50;98.60
19261;DHT22;9764;48.114;11.670;2022-09-03T11:35:56;23.40;98.70
19261;DHT22;9764;48.114;11.670;2022-09-03T11:38:29;23.40;98.80
19261;DHT22;9764;48.114;11.670;2022-09-03T11:41:00;23.40;98.90
19261;DHT22;9764;48.114;11.670;2022-09-03T11:43:33;23.40;99.00
19261;DHT22;9764;48.114;11.670;2022-09-03T11:46:05;23.50;99.60
19261;DHT22;9764;48.114;11.670;2022-09-03T11:48:40;23.40;99.80
19261;DHT22;9764;48.114;11.670;2022-09-03T11:51:19;23.30;99.90
19261;DHT22;9764;48.114;11.670;2022-09-03T11:53:57;23.20;99.90
19261;DHT22;9764;48.114;11.670;2022-09-03T11:56:25;23.10;99.90
19261;DHT22;9764;48.114;11.670;2022-09-03T11:59:04;23.10;99.90
19261;DHT22;9764;48.114;11.670;2022-09-03T12:01:35;23.10;99.90
19261;DHT22;9764;48.114;11.670;2022-09-03T12:04:06;23.10;99.90
19261;DHT22;9764;48.114;11.670;2022-09-03T12:06:48;23.20;99.80
19261;DHT22;9764;48.114;11.670;2022-09-03T12:09:46;23.30;99.80
19261;DHT22;9764;48.114;11.670;2022-09-03T12:12:34;23.30;99.70
19261;DHT22;9764;48.114;11.670;2022-09-03T12:15:11;23.40;99.60
19261;DHT22;9764;48.114;11.670;2022-09-03T12:17:50;23.40;99.50
19261;DHT22;9764;48.114;11.670;2022-09-03T12:20:40;23.40;99.40
19261;DHT22;9764;48.114;11.670;2022-09-03T12:23:10;23.40;99.30
19261;DHT22;9764;48.114;11.670;2022-09-03T12:25:43;23.40;99.30
19261;DHT22;9764;48.114;11.670;2022-09-03T12:28:17;23.40;99.30
19261;DHT22;9764;48.114;11.670;2022-09-03T12:30:49;23.40;99.20
19261;DHT22;9764;48.114;11.670;2022-09-03T12:33:20;23.40;99.20
19261;DHT22;9764;48.114;11.670;2022-09-03T12:35:59;23.40;99.20
19261;DHT22;9764;48.114;11.670;2022-09-03T12:38:28;23.40;99.20
19261;DHT22;9764;48.114;11.670;2022-09-03T12:41:24;23.40;99.10
19261;DHT22;9764;48.114;11.670;2022-09-03T12:43:56;23.40;99.10
19261;DHT22;9764;48.114;11.670;2022-09-03T12:46:26;23.40;99.20
19261;DHT22;9764;48.114;11.670;2022-09-03T12:49:02;23.40;99.20
19261;DHT22;9764;48.114;11.670;2022-09-03T12:51:56;23.40;99.20
19261;DHT22;9764;48.114;11.670;2022-09-03T12:54:32;23.40;99.20
19261;DHT22;9764;48.114;11.670;2022-09-03T12:57:02;23.40;99.20
19261;DHT22;9764;48.114;11.670;2022-09-03T12:59:34;23.40;99.60
19261;DHT22;9764;48.114;11.670;2022-09-03T13:02:12;23.40;99.30
19261;DHT22;9764;48.114;11.670;2022-09-03T13:04:43;23.40;99.30
19261;DHT22;9764;48.114;11.670;2022-09-03T13:07:14;23.40;99.30
19261;DHT22;9764;48.114;11.670;2022-09-03T13:09:48;23.40;99.30
19261;DHT22;9764;48.114;11.670;2022-09-03T13:12:27;23.40;99.30
19261;DHT22;9764;48.114;11.670;2022-09-03T13:15:05;23.40;99.40
19261;DHT22;9764;48.114;11.670;2022-09-03T13:17:50;23.40;99.30
19261;DHT22;9764;48.114;11.670;2022-09-03T13:20:33;23.40;99.30
19261;DHT22;9764;48.114;11.670;2022-09-03T13:26:12;23.40;99.30
19261;DHT22;9764;48.114;11.670;2022-09-03T13:29:11;23.40;99.40
19261;DHT22;9764;48.114;11.670;2022-09-03T13:31:45;23.40;99.40
19261;DHT22;9764;48.114;11.670;2022-09-03T13:34:19;23.40;99.40
19261;DHT22;9764;48.114;11.670;2022-09-03T13:36:54;23.40;99.40
19261;DHT22;9764;48.114;11.670;2022-09-03T13:39:27;23.40;99.40
19261;DHT22;9764;48.114;11.670;2022-09-03T13:42:04;23.40;99.50
19261;DHT22;9764;48.114;11.670;2022-09-03T13:44:41;23.40;99.50
19261;DHT22;9764;48.114;11.670;2022-09-03T13:47:18;23.40;99.60
19261;DHT22;9764;48.114;11.670;2022-09-03T13:49:53;23.40;99.70
19261;DHT22;9764;48.114;11.670;2022-09-03T13:52:42;23.40;99.70
19261;DHT22;9764;48.114;11.670;2022-09-03T13:55:17;23.40;99.80
19261;DHT22;9764;48.114;11.670;2022-09-03T13:57:52;23.40;99.90
19261;DHT22;9764;48.114;11.670;2022-09-03T14:00:31;23.40;99.90
19261;DHT22;9764;48.114;11.670;2022-09-03T14:03:07;23.40;99.90
19261;DHT22;9764;48.114;11.670;2022-09-03T14:05:49;23.50;99.90
19261;DHT22;9764;48.114;11.670;2022-09-03T14:08:29;23.50;99.90
19261;DHT22;9764;48.114;11.670;2022-09-03T14:13:59;23.50;99.90
19261;DHT22;9764;48.114;11.670;2022-09-03T14:16:37;23.50;99.90
19261;DHT22;9764;48.114;11.670;2022-09-03T14:19:14;23.50;99.90
19261;DHT22;9764;48.114;11.670;2022-09-03T14:21:46;23.50;99.90
19261;DHT22;9764;48.114;11.670;2022-09-03T14:24:21;23.50;99.90
19261;DHT22;9764;48.114;11.670;2022-09-03T14:26:53;23.50;99.90
19261;DHT22;9764;48.114;11.670;2022-09-03T14:29:26;23.50;99.90
19261;DHT22;9764;48.114;11.670;2022-09-03T14:32:08;23.50;99.90
19261;DHT22;9764;48.114;11.670;2022-09-03T14:34:51;23.50;99.90
19261;DHT22;9764;48.114;11.670;2022-09-03T14:37:37;23.50;99.90
19261;DHT22;9764;48.114;11.670;2022-09-03T14:40:14;23.50;99.90
19261;DHT22;9764;48.114;11.670;2022-09-03T14:42:56;23.50;99.90
19261;DHT22;9764;48.114;11.670;2022-09-03T14:48:36;23.50;99.90
19261;DHT22;9764;48.114;11.670;2022-09-03T14:51:21;23.50;99.90
19261;DHT22;9764;48.114;11.670;2022-09-03T14:54:11;23.50;99.90
19261;DHT22;9764;48.114;11.670;2022-09-03T14:56:48;23.50;99.90
19261;DHT22;9764;48.114;11.670;2022-09-03T14:59:31;23.50;99.90
19261;DHT22;9764;48.114;11.670;2022-09-03T15:02:15;23.50;99.90
19261;DHT22;9764;48.114;11.670;2022-09-03T15:05:03;23.50;99.90
19261;DHT22;9764;48.114;11.670;2022-09-03T15:07:42;23.50;99.90
19261;DHT22;9764;48.114;11.670;2022-09-03T15:10:19;23.50;99.90
19261;DHT22;9764;48.114;11.670;2022-09-03T15:12:50;23.50;99.90
19261;DHT22;9764;48.114;11.670;2022-09-03T15:15:23;23.50;99.90
19261;DHT22;9764;48.114;11.670;2022-09-03T15:18:02;23.50;99.90
19261;DHT22;9764;48.114;11.670;2022-09-03T15:20:47;23.60;99.90
19261;DHT22;9764;48.114;11.670;2022-09-03T15:23:23;23.50;99.90
19261;DHT22;9764;48.114;11.670;2022-09-03T15:26:22;23.50;99.90
19261;DHT22;9764;48.114;11.670;2022-09-03T15:29:09;23.50;99.90
19261;DHT22;9764;48.114;11.670;2022-09-03T15:31:46;23.50;99.90
19261;DHT22;9764;48.114;11.670;2022-09-03T15:34:40;23.50;99.90
19261;DHT22;9764;48.114;11.670;2022-09-03T15:37:16;23.50;99.90
19261;DHT22;9764;48.114;11.670;2022-09-03T15:39:59;23.50;99.90
19261;DHT22;9764;48.114;11.670;2022-09-03T15:42:29;23.50;99.90
19261;DHT22;9764;48.114;11.670;2022-09-03T15:45:03;23.50;99.90
19261;DHT22;9764;48.114;11.670;2022-09-03T15:47:55;23.50;99.90
19261;DHT22;9764;48.114;11.670;2022-09-03T15:50:32;23.60;99.90
19261;DHT22;9764;48.114;11.670;2022-09-03T15:53:15;23.60;99.90
19261;DHT22;9764;48.114;11.670;2022-09-03T15:56:02;23.60;99.90
19261;DHT22;9764;48.114;11.670;2022-09-03T15:58:41;23.60;99.90
19261;DHT22;9764;48.114;11.670;2022-09-03T16:01:24;23.60;99.90
19261;DHT22;9764;48.114;11.670;2022-09-03T16:04:02;23.60;99.90
19261;DHT22;9764;48.114;11.670;2022-09-03T16:06:46;23.60;99.90
19261;DHT22;9764;48.114;11.670;2022-09-03T16:09:28;23.60;99.90
19261;DHT22;9764;48.114;11.670;2022-09-03T16:12:05;23.60;99.90
19261;DHT22;9764;48.114;11.670;2022-09-03T16:14:39;23.60;99.90
19261;DHT22;9764;48.114;11.670;2022-09-03T16:17:24;23.60;99.90
19261;DHT22;9764;48.114;11.670;2022-09-03T16:19:57;23.60;99.90
19261;DHT22;9764;48.114;11.670;2022-09-03T16:22:31;23.50;99.90
19261;DHT22;9764;48.114;11.670;2022-09-03T16:25:09;23.50;99.90
19261;DHT22;9764;48.114;11.670;2022-09-03T16:27:45;23.60;99.90